Time;durP1;ratioP1;P1;durP2;ratioP2;P2;SDS_P1;SDS_P2;PMS_P1;PMS_P2;Temp;Humidity;BMP_temperature;BMP_pressure;BME280_temperature;BME280_humidity;BME280_pressure;Samples;Min_cycle;Max_cycle;Signal;HPM_P1;HPM_P2
2020/12/14 00:00:23;;;;;;;9.96;5.61;;;;;;;3.40;70.54;99336.56;372680;106;1960641;-72
2020/12/14 00:01:29;;;;;;;10.74;5.88;;;;;;;3.42;70.46;99344.42;371826;106;1960725;-73
2020/12/14 00:02:36;;;;;;;10.60;5.52;;;;;;;3.43;70.55;99343.41;322145;106;2854716;-72
2020/12/14 00:03:42;;;;;;;8.27;5.20;;;;;;;3.43;70.25;99341.56;371916;106;1960630;-73
2020/12/14 00:04:47;;;;;;;9.06;5.33;;;;;;;3.45;70.57;99338.74;372739;106;1960678;-72
2020/12/14 00:05:52;;;;;;;9.45;5.36;;;;;;;3.43;70.46;99344.23;373075;106;1960686;-73
2020/12/14 00:06:58;;;;;;;9.49;5.16;;;;;;;3.46;70.44;99338.55;372622;106;1960630;-73
2020/12/14 00:08:04;;;;;;;10.12;5.55;;;;;;;3.48;70.44;99341.06;372741;108;1960733;-73
2020/12/14 00:09:10;;;;;;;8.88;4.81;;;;;;;3.49;70.41;99340.91;334344;106;2623683;-74
2020/12/14 00:10:18;;;;;;;10.39;5.79;;;;;;;3.49;70.42;99340.91;371819;107;1960689;-73
2020/12/14 00:11:36;;;;;;;8.89;5.45;;;;;;;3.48;70.41;99343.74;371078;106;1960665;-73
2020/12/14 00:12:41;;;;;;;10.18;5.56;;;;;;;3.48;70.51;99341.06;371730;107;1960735;-73
2020/12/14 00:13:47;;;;;;;10.52;5.17;;;;;;;3.47;70.42;99347.42;374031;106;1960676;-73
2020/12/14 00:14:52;;;;;;;9.73;5.59;;;;;;;3.49;70.52;99343.59;374380;106;1960641;-73
2020/12/14 00:15:59;;;;;;;9.46;5.20;;;;;;;3.51;70.51;99346.06;365833;108;1960694;-73
2020/12/14 00:17:05;;;;;;;10.04;4.78;;;;;;;3.52;70.41;99345.91;317325;108;2842710;-72
2020/12/14 00:18:10;;;;;;;8.72;5.38;;;;;;;3.50;70.26;99344.41;361041;106;1960666;-73
2020/12/14 00:19:15;;;;;;;9.35;5.01;;;;;;;3.48;70.31;99343.74;373198;106;1960716;-72
2020/12/14 00:20:22;;;;;;;8.59;4.79;;;;;;;3.47;70.41;99347.42;371727;107;1960654;-72
2020/12/14 00:21:27;;;;;;;8.07;4.87;;;;;;;3.47;70.46;99342.09;373415;106;1960626;-73
2020/12/14 00:22:34;;;;;;;8.16;4.69;;;;;;;3.48;70.53;99349.08;373904;106;1960707;-72
2020/12/14 00:23:39;;;;;;;8.76;5.13;;;;;;;3.50;70.52;99341.74;342743;106;1960639;-73
2020/12/14 00:24:45;;;;;;;10.37;5.54;;;;;;;3.51;70.33;99343.40;358062;106;1960648;-73
2020/12/14 00:25:50;;;;;;;10.61;5.49;;;;;;;3.50;70.26;99345.24;370859;106;1960721;-72
2020/12/14 00:26:55;;;;;;;10.31;5.56;;;;;;;3.51;70.42;99343.40;370050;106;1960697;-73
2020/12/14 00:28:01;;;;;;;8.88;4.92;;;;;;;3.52;70.35;99343.24;371874;106;1960618;-72
2020/12/14 00:29:06;;;;;;;7.83;5.14;;;;;;;3.54;70.44;99343.05;372107;107;1960683;-72
2020/12/14 00:30:12;;;;;;;9.52;5.28;;;;;;;3.57;70.34;99342.72;372176;106;1960629;-71
2020/12/14 00:31:18;;;;;;;8.91;5.47;;;;;;;3.57;70.15;99348.05;324735;107;2782747;-71
2020/12/14 00:32:24;;;;;;;9.19;4.99;;;;;;;3.59;70.05;99340.72;351348;106;1960653;-71
2020/12/14 00:33:30;;;;;;;9.09;4.86;;;;;;;3.56;70.20;99343.73;374688;106;1960790;-70
2020/12/14 00:34:35;;;;;;;8.46;5.41;;;;;;;3.58;70.21;99346.25;373486;106;1960658;-72
2020/12/14 00:35:42;;;;;;;9.43;5.24;;;;;;;3.57;70.12;99350.73;372816;106;1960734;-71
2020/12/14 00:36:48;;;;;;;8.96;4.62;;;;;;;3.57;70.06;99345.39;309778;106;2204568;-71
2020/12/14 00:37:53;;;;;;;10.06;4.71;;;;;;;3.52;70.00;99345.91;353821;106;1960694;-72
2020/12/14 00:38:59;;;;;;;9.47;5.04;;;;;;;3.51;70.10;99343.40;373030;106;1960673;-72
2020/12/14 00:40:04;;;;;;;9.35;5.32;;;;;;;3.52;70.11;99348.58;373649;108;1960624;-72
2020/12/14 00:41:12;;;;;;;8.87;5.15;;;;;;;3.50;69.89;99350.58;373447;107;1960673;-72
2020/12/14 00:42:18;;;;;;;8.55;5.03;;;;;;;3.44;70.00;99348.59;345134;107;1960706;-72
2020/12/14 00:43:23;;;;;;;8.89;5.29;;;;;;;3.40;70.23;99349.91;372699;106;1961676;-72
2020/12/14 00:44:28;;;;;;;8.93;4.99;;;;;;;3.39;70.30;99350.10;375178;106;1960699;-72
2020/12/14 00:45:34;;;;;;;8.66;4.88;;;;;;;3.34;70.38;99355.94;373515;106;1960760;-72
2020/12/14 00:46:44;;;;;;;10.52;5.06;;;;;;;3.29;70.60;99350.27;369396;106;1960729;-73
2020/12/14 00:47:49;;;;;;;8.29;5.16;;;;;;;3.23;70.74;99348.27;374373;106;1960678;-73
2020/12/14 00:48:55;;;;;;;9.61;5.42;;;;;;;3.22;70.85;99347.41;372801;106;1959566;-72
2020/12/14 00:50:01;;;;;;;8.77;5.07;;;;;;;3.23;70.95;99346.42;323722;106;2826902;-73
2020/12/14 00:51:07;;;;;;;9.02;5.21;;;;;;;3.26;71.07;99345.26;359205;108;1959730;-72
2020/12/14 00:52:13;;;;;;;10.08;5.91;;;;;;;3.29;71.17;99348.42;370804;107;1960708;-72
2020/12/14 00:53:20;;;;;;;8.84;4.82;;;;;;;3.32;71.09;99347.25;365642;110;1960731;-73
2020/12/14 00:54:26;;;;;;;10.97;5.49;;;;;;;3.35;70.87;99343.41;330104;110;2555636;-72
2020/12/14 00:55:31;;;;;;;9.31;5.59;;;;;;;3.37;70.85;99346.76;336796;110;1960863;-72
2020/12/14 00:56:37;;;;;;;9.13;5.41;;;;;;;3.39;70.89;99345.59;365610;109;1960674;-73
2020/12/14 00:57:43;;;;;;;9.13;5.26;;;;;;;3.43;70.79;99351.42;364264;109;1960654;-73
2020/12/14 00:58:49;;;;;;;9.21;5.53;;;;;;;3.41;70.75;99348.91;363569;110;1959628;-72
2020/12/14 00:59:57;;;;;;;9.17;5.47;;;;;;;3.42;70.79;99350.59;308268;110;2168334;-73
2020/12/14 01:01:02;;;;;;;10.38;5.57;;;;;;;3.43;70.84;99346.08;369528;108;1960675;-72
2020/12/14 01:02:08;;;;;;;8.93;5.69;;;;;;;3.40;70.86;99346.42;367713;107;1961640;-71
2020/12/14 01:03:14;;;;;;;11.06;5.99;;;;;;;3.40;70.81;99349.91;367201;108;1960730;-72
2020/12/14 01:04:21;;;;;;;9.65;5.70;;;;;;;3.40;71.01;99346.42;348182;108;2284790;-72
2020/12/14 01:05:26;;;;;;;11.82;6.42;;;;;;;3.41;71.08;99342.73;366684;108;1960674;-73
2020/12/14 01:06:33;;;;;;;8.97;5.56;;;;;;;3.41;71.04;99345.41;366800;108;1960720;-71
2020/12/14 01:07:39;;;;;;;9.94;5.53;;;;;;;3.42;71.41;99345.25;328157;108;2646727;-71
2020/12/14 01:08:45;;;;;;;9.64;5.50;;;;;;;3.43;71.38;99343.41;339631;108;1960618;-73
2020/12/14 01:09:50;;;;;;;9.02;5.49;;;;;;;3.41;71.40;99340.06;367287;108;1960694;-73
2020/12/14 01:10:55;;;;;;;10.46;5.59;;;;;;;3.42;71.39;99345.25;366908;108;1960626;-72
2020/12/14 01:12:03;;;;;;;9.70;5.58;;;;;;;3.43;71.50;99346.91;367583;108;1960707;-73
2020/12/14 01:13:09;;;;;;;9.28;5.37;;;;;;;3.43;71.45;99346.91;342626;108;2389037;-71
2020/12/14 01:14:15;;;;;;;9.35;5.72;;;;;;;3.43;71.55;99340.73;344287;108;1960668;-72
2020/12/14 01:15:20;;;;;;;11.07;6.39;;;;;;;3.43;71.54;99340.73;368766;110;1960751;-73
2020/12/14 01:16:25;;;;;;;10.85;5.97;;;;;;;3.41;71.48;99348.08;366909;108;1960722;-72
2020/12/14 01:17:32;;;;;;;10.69;6.10;;;;;;;3.40;71.45;99344.58;368202;107;1960694;-71
2020/12/14 01:18:37;;;;;;;11.52;6.45;;;;;;;3.39;71.50;99344.77;367266;108;1960610;-71
2020/12/14 01:19:43;;;;;;;9.86;6.00;;;;;;;3.36;71.86;99342.40;338001;107;2488693;-72
2020/12/14 01:20:50;;;;;;;9.38;5.27;;;;;;;3.38;71.75;99338.56;369073;108;1960716;-71
2020/12/14 01:21:55;;;;;;;10.76;6.10;;;;;;;3.38;71.72;99333.22;369559;108;1960639;-73
2020/12/14 01:23:00;;;;;;;10.66;5.56;;;;;;;3.39;71.96;99350.10;367626;108;1960737;-73
2020/12/14 01:24:05;;;;;;;11.80;6.36;;;;;;;3.39;72.12;99345.59;367716;108;1960657;-73
2020/12/14 01:25:11;;;;;;;12.21;6.30;;;;;;;3.40;72.31;99338.41;368344;107;1960611;-73
2020/12/14 01:26:17;;;;;;;10.35;6.36;;;;;;;3.40;72.49;99346.42;368832;108;1960686;-72
2020/12/14 01:27:23;;;;;;;9.99;6.07;;;;;;;3.38;72.55;99346.57;334162;108;2521722;-71
2020/12/14 01:28:28;;;;;;;11.21;6.90;;;;;;;3.38;72.61;99343.08;338500;107;1960656;-72
2020/12/14 01:29:33;;;;;;;10.63;5.62;;;;;;;3.37;73.00;99344.09;356963;108;1960651;-72
2020/12/14 01:30:39;;;;;;;10.41;5.71;;;;;;;3.37;72.83;99338.75;367544;108;1960646;-72
2020/12/14 01:31:45;;;;;;;12.48;6.47;;;;;;;3.38;73.03;99333.22;365348;109;1960635;-70
2020/12/14 01:32:51;;;;;;;11.06;7.06;;;;;;;3.37;73.02;99333.41;366534;108;1960688;-72
2020/12/14 01:33:56;;;;;;;10.31;6.56;;;;;;;3.36;72.75;99327.23;367636;108;1960744;-72
2020/12/14 01:35:03;;;;;;;10.79;5.93;;;;;;;3.34;72.97;99334.58;334827;108;2516151;-72
2020/12/14 01:36:09;;;;;;;11.23;6.44;;;;;;;3.32;73.05;99328.56;368825;108;1960616;-72
2020/12/14 01:37:14;;;;;;;11.68;6.41;;;;;;;3.30;73.41;99323.37;368963;108;1960691;-72
2020/12/14 01:38:20;;;;;;;10.57;6.10;;;;;;;3.28;73.39;99328.08;366786;108;1960772;-71
2020/12/14 01:39:25;;;;;;;11.71;6.41;;;;;;;3.29;73.37;99326.23;368123;108;1960747;-71
2020/12/14 01:40:32;;;;;;;9.91;5.66;;;;;;;3.26;73.25;99327.41;335953;108;2512917;-73
2020/12/14 01:41:37;;;;;;;10.84;5.76;;;;;;;3.27;73.59;99330.90;357833;107;1960628;-72
2020/12/14 01:42:46;;;;;;;11.67;6.06;;;;;;;3.25;73.61;99327.55;367426;108;1960683;-72
2020/12/14 01:43:51;;;;;;;10.80;6.14;;;;;;;3.24;73.81;99332.06;333259;108;1960692;-71
2020/12/14 01:44:57;;;;;;;10.81;6.34;;;;;;;3.25;73.73;99324.89;360979;107;1962649;-73
2020/12/14 01:46:02;;;;;;;10.52;5.88;;;;;;;3.21;73.76;99326.23;368277;108;1960724;-72
2020/12/14 01:47:08;;;;;;;9.82;6.01;;;;;;;3.19;73.62;99330.91;367704;108;1960660;-71
2020/12/14 01:48:13;;;;;;;11.57;6.14;;;;;;;3.19;73.93;99325.56;367606;108;1960699;-73
2020/12/14 01:49:20;;;;;;;10.34;5.61;;;;;;;3.19;73.90;99326.39;366991;108;1960642;-72
2020/12/14 01:50:27;;;;;;;11.95;5.93;;;;;;;3.19;73.81;99331.73;369722;106;1961741;-72
2020/12/14 01:51:32;;;;;;;10.28;5.79;;;;;;;3.19;73.76;99331.73;373705;106;1960735;-72
2020/12/14 01:52:44;;;;;;;11.16;6.34;;;;;;;3.18;74.19;99329.25;372782;106;1960719;-72
2020/12/14 01:53:51;;;;;;;12.44;6.59;;;;;;;3.18;74.13;99331.92;363556;106;2948711;-72
2020/12/14 01:55:00;;;;;;;11.16;6.38;;;;;;;3.17;74.52;99330.23;372445;106;1960687;-71
2020/12/14 01:56:06;;;;;;;10.52;5.89;;;;;;;3.15;74.11;99330.41;368735;106;1960660;-72
2020/12/14 01:57:12;;;;;;;9.84;5.41;;;;;;;3.16;74.45;99334.73;372056;106;1960667;-72
2020/12/14 01:58:17;;;;;;;9.50;5.57;;;;;;;3.15;74.77;99338.42;370871;106;1961036;-72
2020/12/14 01:59:22;;;;;;;10.44;6.41;;;;;;;3.15;74.82;99335.75;372240;106;1960671;-72
2020/12/14 02:00:29;;;;;;;10.81;6.01;;;;;;;3.15;75.08;99338.42;371908;108;1960678;-73
2020/12/14 02:01:35;;;;;;;10.15;5.41;;;;;;;3.17;75.15;99336.39;332691;106;2646650;-71
2020/12/14 02:02:40;;;;;;;10.20;6.06;;;;;;;3.20;74.90;99341.42;357098;106;1960607;-71
2020/12/14 02:03:45;;;;;;;9.07;5.19;;;;;;;3.21;75.00;99334.25;371498;106;1960635;-72
2020/12/14 02:04:51;;;;;;;9.37;5.81;;;;;;;3.23;74.89;99337.59;371908;106;1960571;-72
2020/12/14 02:05:57;;;;;;;8.83;5.39;;;;;;;3.22;74.66;99336.73;372777;106;1960694;-72
2020/12/14 02:07:03;;;;;;;10.46;5.55;;;;;;;3.23;74.84;99330.41;372452;106;1960669;-71
2020/12/14 02:08:09;;;;;;;9.26;5.21;;;;;;;3.24;74.63;99334.73;324418;106;2797740;-72
2020/12/14 02:09:14;;;;;;;9.13;4.92;;;;;;;3.25;74.71;99335.56;342988;106;1960713;-71
2020/12/14 02:10:21;;;;;;;9.72;5.78;;;;;;;3.24;74.90;99329.40;372239;106;1960748;-72
2020/12/14 02:11:27;;;;;;;10.08;6.06;;;;;;;3.26;75.31;99338.08;371162;106;1960685;-71
2020/12/14 02:12:32;;;;;;;11.64;5.26;;;;;;;3.27;74.80;99333.57;372169;106;1960714;-71
2020/12/14 02:13:38;;;;;;;8.50;4.94;;;;;;;3.26;74.61;99337.25;329520;106;2715704;-72
2020/12/14 02:14:44;;;;;;;8.69;5.08;;;;;;;3.26;74.74;99334.58;340001;106;1960664;-72
2020/12/14 02:15:49;;;;;;;9.60;5.26;;;;;;;3.23;74.35;99334.92;357800;106;1960646;-71
2020/12/14 02:16:54;;;;;;;10.27;5.92;;;;;;;3.22;74.92;99343.91;372741;106;1960645;-72
2020/12/14 02:18:00;;;;;;;10.17;5.77;;;;;;;3.23;74.82;99334.92;370713;103;1959724;-75
2020/12/14 02:19:05;;;;;;;10.18;5.26;;;;;;;3.23;74.74;99341.09;349384;115;1960686;-74
2020/12/14 02:20:12;;;;;;;9.07;5.29;;;;;;;3.22;74.64;99342.06;350195;115;1960755;-74
2020/12/14 02:21:18;;;;;;;9.62;6.28;;;;;;;3.21;74.73;99342.25;302925;115;2802732;-75
2020/12/14 02:22:25;;;;;;;10.34;6.32;;;;;;;3.19;74.62;99342.41;318249;115;1960637;-75
2020/12/14 02:23:31;;;;;;;10.48;5.48;;;;;;;3.18;74.78;99343.42;348050;113;1960930;-74
2020/12/14 02:24:36;;;;;;;8.59;5.48;;;;;;;3.19;75.02;99347.75;350928;115;1960739;-75
2020/12/14 02:25:43;;;;;;;11.51;6.18;;;;;;;3.21;74.80;99351.09;300528;113;2856737;-75
2020/12/14 02:26:49;;;;;;;9.90;5.07;;;;;;;3.20;74.79;99341.42;348600;115;1960733;-74
2020/12/14 02:27:54;;;;;;;10.26;5.36;;;;;;;3.22;74.42;99343.91;347151;113;1960743;-74
2020/12/14 02:28:59;;;;;;;9.33;5.20;;;;;;;3.18;74.30;99343.42;348293;115;1960722;-75
2020/12/14 02:30:06;;;;;;;8.02;4.54;;;;;;;3.18;74.53;99337.25;345738;114;1960748;-73
2020/12/14 02:31:12;;;;;;;10.37;5.69;;;;;;;3.20;74.78;99348.57;308517;113;2680682;-74
2020/12/14 02:32:19;;;;;;;8.84;4.87;;;;;;;3.20;74.58;99340.56;343835;114;1960726;-74
2020/12/14 02:33:24;;;;;;;8.99;5.54;;;;;;;3.19;74.78;99344.25;352115;112;1960684;-74
2020/12/14 02:34:29;;;;;;;10.12;5.71;;;;;;;3.17;74.64;99341.73;350707;114;1960665;-74
2020/12/14 02:35:35;;;;;;;9.81;5.53;;;;;;;3.17;75.20;99340.91;352453;114;1960754;-75
2020/12/14 02:36:42;;;;;;;9.11;4.84;;;;;;;3.19;75.05;99345.08;317785;112;1960737;-74
2020/12/14 02:37:47;;;;;;;9.61;5.67;;;;;;;3.18;74.94;99338.08;337322;112;1960741;-75
2020/12/14 02:38:53;;;;;;;9.99;5.39;;;;;;;3.19;75.13;99341.58;350961;112;1960700;-75
2020/12/14 02:39:58;;;;;;;9.33;5.18;;;;;;;3.19;75.02;99345.08;351667;112;1960750;-74
2020/12/14 02:41:04;;;;;;;10.27;5.44;;;;;;;3.19;74.80;99342.41;352153;112;1960683;-74
2020/12/14 02:42:12;;;;;;;8.97;5.19;;;;;;;3.21;74.85;99344.92;361897;106;1960713;-72
2020/12/14 02:43:17;;;;;;;8.44;4.90;;;;;;;3.22;74.66;99343.91;360581;110;1960657;-72
2020/12/14 02:44:23;;;;;;;8.96;5.39;;;;;;;3.23;74.72;99342.92;365474;109;1960747;-71
2020/12/14 02:45:28;;;;;;;8.88;5.32;;;;;;;3.24;74.85;99340.08;363702;109;1960690;-72
2020/12/14 02:46:35;;;;;;;10.33;5.95;;;;;;;3.22;74.59;99341.24;332799;109;2230828;-71
2020/12/14 02:47:41;;;;;;;10.32;5.58;;;;;;;3.22;75.08;99339.40;348599;109;1960701;-73
2020/12/14 02:48:46;;;;;;;10.10;5.81;;;;;;;3.21;74.63;99343.08;360981;109;1960754;-72
2020/12/14 02:49:52;;;;;;;8.92;5.19;;;;;;;3.20;74.58;99344.09;365456;109;1960731;-72
2020/12/14 02:50:58;;;;;;;10.73;6.00;;;;;;;3.23;74.84;99338.42;367158;109;1960638;-72
2020/12/14 02:52:05;;;;;;;10.51;6.05;;;;;;;3.22;74.92;99339.40;366137;109;1961661;-72
2020/12/14 02:53:10;;;;;;;10.78;5.69;;;;;;;3.24;74.69;99344.58;347948;109;1960707;-73
2020/12/14 02:54:16;;;;;;;10.52;5.91;;;;;;;3.25;74.87;99335.56;366370;109;1960687;-72
2020/12/14 02:55:21;;;;;;;13.62;6.32;;;;;;;3.22;73.94;99338.57;366364;109;1960628;-72
2020/12/14 02:56:27;;;;;;;10.89;6.05;;;;;;;3.24;74.35;99336.58;365940;109;1960679;-71
2020/12/14 02:57:33;;;;;;;10.31;6.15;;;;;;;3.24;74.63;99337.41;366304;109;1960708;-72
2020/12/14 02:58:39;;;;;;;10.11;6.68;;;;;;;3.25;74.44;99338.23;333256;109;2538650;-71
2020/12/14 02:59:45;;;;;;;11.23;7.09;;;;;;;3.26;74.58;99334.58;341255;109;1960703;-72
2020/12/14 03:00:52;;;;;;;11.72;5.97;;;;;;;3.27;74.40;99337.06;367622;109;1960786;-72
2020/12/14 03:01:58;;;;;;;10.55;5.73;;;;;;;3.25;74.32;99336.39;365452;109;1960658;-73
2020/12/14 03:03:04;;;;;;;11.01;6.08;;;;;;;3.26;74.37;99334.58;329854;109;2585709;-72
2020/12/14 03:04:10;;;;;;;10.82;6.14;;;;;;;3.27;74.67;99338.91;359951;109;1960659;-72
2020/12/14 03:05:15;;;;;;;10.61;5.97;;;;;;;3.28;74.38;99336.09;362437;110;1960734;-71
2020/12/14 03:06:21;;;;;;;10.69;5.88;;;;;;;3.30;74.25;99336.73;359929;110;1960739;-71
2020/12/14 03:07:26;;;;;;;9.09;5.34;;;;;;;3.29;74.32;99335.07;359639;110;1960672;-71
2020/12/14 03:08:32;;;;;;;10.19;5.93;;;;;;;3.29;74.61;99332.41;359063;110;1960666;-71
2020/12/14 03:09:38;;;;;;;10.51;5.57;;;;;;;3.31;74.52;99334.92;309934;110;2846714;-72
2020/12/14 03:10:44;;;;;;;9.24;5.04;;;;;;;3.32;74.06;99333.08;347747;109;1961697;-71
2020/12/14 03:11:50;;;;;;;9.46;5.54;;;;;;;3.32;74.16;99328.56;353495;113;1960742;-71
2020/12/14 03:12:56;;;;;;;8.94;5.08;;;;;;;3.33;74.08;99332.06;352308;113;1960721;-71
2020/12/14 03:14:01;;;;;;;9.49;5.06;;;;;;;3.31;74.01;99337.59;360517;110;1960718;-71
2020/12/14 03:15:07;;;;;;;9.73;5.36;;;;;;;3.30;74.08;99335.90;358948;110;1960694;-72
2020/12/14 03:16:13;;;;;;;8.31;5.14;;;;;;;3.31;74.17;99332.25;334051;110;2415635;-71
2020/12/14 03:17:19;;;;;;;8.91;5.31;;;;;;;3.30;74.34;99341.23;361313;110;1961676;-73
2020/12/14 03:18:24;;;;;;;8.41;5.21;;;;;;;3.31;74.33;99340.25;352745;112;1960669;-71
2020/12/14 03:19:32;;;;;;;8.56;5.11;;;;;;;3.33;74.34;99334.73;358354;110;1967737;-72
2020/12/14 03:20:37;;;;;;;10.22;5.74;;;;;;;3.33;73.96;99337.40;331376;111;2460681;-73
2020/12/14 03:21:43;;;;;;;10.30;5.28;;;;;;;3.34;73.71;99331.91;329236;113;1960664;-72
2020/12/14 03:22:48;;;;;;;9.37;5.33;;;;;;;3.32;73.87;99335.75;354814;109;1960662;-73
2020/12/14 03:23:53;;;;;;;9.42;5.71;;;;;;;3.28;74.04;99338.75;361932;110;1960608;-72
2020/12/14 03:25:01;;;;;;;8.37;5.37;;;;;;;3.29;74.09;99331.58;353633;113;1960590;-70
2020/12/14 03:26:07;;;;;;;8.99;5.36;;;;;;;3.29;74.13;99334.24;332424;110;2440637;-72
2020/12/14 03:27:12;;;;;;;9.89;5.53;;;;;;;3.29;74.18;99331.58;330932;113;1960733;-72
2020/12/14 03:28:18;;;;;;;9.13;5.22;;;;;;;3.30;74.32;99335.90;361062;109;1960702;-72
2020/12/14 03:29:23;;;;;;;10.23;6.58;;;;;;;3.33;74.23;99340.07;366123;109;1960639;-73
2020/12/14 03:30:29;;;;;;;10.44;5.77;;;;;;;3.32;74.25;99335.75;366733;109;1960684;-72
2020/12/14 03:31:37;;;;;;;10.74;5.89;;;;;;;3.32;74.16;99333.91;361551;110;1960779;-73
2020/12/14 03:32:42;;;;;;;9.68;5.09;;;;;;;3.32;74.02;99333.91;347743;112;1960666;-72
2020/12/14 03:33:49;;;;;;;9.53;4.74;;;;;;;3.31;73.98;99332.25;358485;112;1960661;-73
2020/12/14 03:34:55;;;;;;;9.49;5.06;;;;;;;3.29;73.77;99332.41;356469;112;1960630;-71
2020/12/14 03:36:02;;;;;;;9.11;5.21;;;;;;;3.26;73.64;99330.07;311943;110;2845694;-73
2020/12/14 03:37:07;;;;;;;11.13;6.11;;;;;;;3.25;74.05;99339.06;360843;110;1960717;-71
2020/12/14 03:38:14;;;;;;;9.66;5.49;;;;;;;3.24;74.26;99337.41;361617;110;1960651;-72
2020/12/14 03:39:20;;;;;;;9.57;5.42;;;;;;;3.23;73.96;99341.09;361485;110;1960684;-72
2020/12/14 03:40:27;;;;;;;10.29;5.89;;;;;;;3.23;74.33;99333.08;353827;113;1960685;-71
2020/12/14 03:41:32;;;;;;;9.46;5.63;;;;;;;3.25;74.32;99338.23;360124;110;1960739;-71
2020/12/14 03:42:37;;;;;;;9.11;5.06;;;;;;;3.26;74.31;99343.42;356184;110;1960712;-72
2020/12/14 03:43:42;;;;;;;9.88;5.77;;;;;;;3.28;74.40;99335.22;359715;110;1960718;-72
2020/12/14 03:44:48;;;;;;;11.33;5.37;;;;;;;3.29;74.15;99336.91;361663;110;1960715;-73
2020/12/14 03:45:54;;;;;;;8.81;5.61;;;;;;;3.31;74.25;99337.59;360801;110;1960730;-72
2020/12/14 03:47:00;;;;;;;10.26;5.13;;;;;;;2.84;74.14;99260.86;323649;110;2637708;-71
2020/12/14 03:48:05;;;;;;;9.32;5.41;;;;;;;3.33;74.19;99338.23;343966;112;1960674;-72
2020/12/14 03:49:11;;;;;;;9.36;4.96;;;;;;;3.34;74.12;99344.42;362132;110;1961875;-72
2020/12/14 03:50:17;;;;;;;10.36;5.06;;;;;;;3.33;74.14;99332.06;358924;110;1960623;-72
2020/12/14 03:51:24;;;;;;;11.19;5.74;;;;;;;3.34;74.27;99345.26;362051;110;1960685;-72
2020/12/14 03:52:30;;;;;;;8.69;5.54;;;;;;;3.35;74.33;99335.41;304324;110;2239676;-72
2020/12/14 03:53:35;;;;;;;9.32;5.31;;;;;;;3.38;74.14;99340.41;342565;110;1960607;-72
2020/12/14 03:54:40;;;;;;;10.02;4.83;;;;;;;3.39;73.93;99342.09;361525;110;1962682;-72
2020/12/14 03:55:46;;;;;;;8.63;4.99;;;;;;;3.38;73.88;99343.91;361146;110;1960716;-72
2020/12/14 03:56:51;;;;;;;10.05;5.08;;;;;;;3.35;73.75;99354.09;362495;110;1960707;-72
2020/12/14 03:57:56;;;;;;;9.86;5.14;;;;;;;3.34;74.05;99339.91;360097;110;1960691;-72
2020/12/14 03:59:02;;;;;;;9.17;5.24;;;;;;;3.36;74.15;99347.74;362048;110;1960717;-72
2020/12/14 04:00:08;;;;;;;8.67;5.14;;;;;;;3.38;74.06;99348.41;361847;110;1960797;-72
2020/12/14 04:01:19;;;;;;;10.14;5.02;;;;;;;3.39;74.14;99345.59;361808;110;1960722;-71
2020/12/14 04:02:27;;;;;;;10.07;5.37;;;;;;;3.40;74.06;99351.76;360088;110;1960595;-73
2020/12/14 04:03:33;;;;;;;9.27;5.42;;;;;;;3.39;74.02;99347.43;362596;110;1960781;-73
2020/12/14 04:04:39;;;;;;;8.38;5.36;;;;;;;3.40;74.21;99344.58;328221;110;2547636;-71
2020/12/14 04:05:44;;;;;;;8.76;5.36;;;;;;;3.42;74.11;99349.77;327617;110;1960702;-72
2020/12/14 04:06:49;;;;;;;10.13;5.50;;;;;;;3.39;73.86;99342.92;349017;110;1960659;-72
2020/12/14 04:07:54;;;;;;;9.16;4.88;;;;;;;3.41;73.90;99337.39;359719;112;1960732;-71
2020/12/14 04:08:59;;;;;;;10.24;5.44;;;;;;;3.41;73.77;99343.56;359910;110;1960677;-71
2020/12/14 04:10:05;;;;;;;12.09;6.94;;;;;;;3.40;73.99;99352.59;363875;110;1960687;-72
2020/12/14 04:11:11;;;;;;;8.59;5.70;;;;;;;3.41;74.05;99340.89;355937;112;1960630;-72
2020/12/14 04:12:16;;;;;;;11.42;6.04;;;;;;;3.43;74.22;99349.58;358719;110;1960753;-72
2020/12/14 04:13:23;;;;;;;10.07;5.12;;;;;;;3.43;74.14;99338.89;316981;110;2796781;-74
2020/12/14 04:14:28;;;;;;;10.26;5.68;;;;;;;3.44;74.12;99340.58;331279;110;1961725;-71
2020/12/14 04:15:33;;;;;;;12.39;6.78;;;;;;;3.45;73.55;99344.08;352268;108;1960800;-73
2020/12/14 04:16:42;;;;;;;9.27;5.36;;;;;;;3.45;73.86;99344.91;363176;110;1960725;-71
2020/12/14 04:17:47;;;;;;;11.49;5.92;;;;;;;3.45;74.00;99350.25;329155;110;2528701;-72
2020/12/14 04:18:54;;;;;;;11.62;6.22;;;;;;;3.45;73.87;99352.09;334283;110;1960739;-71
2020/12/14 04:20:01;;;;;;;10.35;5.84;;;;;;;3.46;73.70;99351.91;362233;110;1960673;-72
2020/12/14 04:21:07;;;;;;;10.67;5.61;;;;;;;3.47;73.59;99350.09;360440;110;1960655;-72
2020/12/14 04:22:13;;;;;;;12.72;7.17;;;;;;;3.46;73.69;99351.08;358522;110;1960698;-72
2020/12/14 04:23:19;;;;;;;12.98;6.69;;;;;;;3.47;73.62;99355.44;362870;110;1960647;-73
2020/12/14 04:24:24;;;;;;;10.65;5.75;;;;;;;3.46;73.77;99357.25;362074;110;1960600;-72
2020/12/14 04:25:29;;;;;;;9.96;4.77;;;;;;;3.47;73.53;99356.27;363073;110;1960731;-72
2020/12/14 04:26:36;;;;;;;12.49;7.07;;;;;;;3.47;73.48;99358.94;362344;110;1961711;-72
2020/12/14 04:27:42;;;;;;;13.34;6.81;;;;;;;3.47;73.74;99352.77;317859;110;2773795;-72
2020/12/14 04:28:48;;;;;;;10.17;6.02;;;;;;;3.47;73.69;99358.94;363470;110;1960660;-72
2020/12/14 04:29:53;;;;;;;11.58;5.33;;;;;;;3.47;73.82;99356.27;362032;110;1960673;-73
2020/12/14 04:31:01;;;;;;;9.74;5.12;;;;;;;3.48;73.73;99360.59;362049;110;1960653;-72
2020/12/14 04:32:07;;;;;;;11.52;5.34;;;;;;;3.48;73.54;99362.43;362205;110;1960691;-72
2020/12/14 04:33:13;;;;;;;10.54;5.01;;;;;;;3.48;73.54;99354.42;360701;110;1960679;-71
2020/12/14 04:34:19;;;;;;;11.01;5.41;;;;;;;3.47;73.55;99358.94;363602;110;1961698;-72
2020/12/14 04:35:25;;;;;;;12.38;5.66;;;;;;;3.48;73.74;99359.77;353339;113;1960732;-71
2020/12/14 04:36:32;;;;;;;13.28;6.33;;;;;;;3.49;73.72;99366.76;338617;110;1960780;-72
2020/12/14 04:37:38;;;;;;;9.52;5.45;;;;;;;3.51;73.57;99367.43;361184;110;1960720;-71
2020/12/14 04:38:44;;;;;;;9.15;5.43;;;;;;;3.50;73.68;99363.94;361402;110;1960737;-73
2020/12/14 04:39:50;;;;;;;9.57;5.04;;;;;;;3.51;73.59;99360.25;363277;110;1960722;-72
2020/12/14 04:40:59;;;;;;;11.14;5.74;;;;;;;3.52;73.54;99369.13;324850;110;2641684;-71
2020/12/14 04:42:06;;;;;;;10.14;5.39;;;;;;;3.51;73.50;99365.59;314428;110;2820731;-72
2020/12/14 04:43:13;;;;;;;14.96;5.32;;;;;;;3.51;73.72;99367.43;341685;108;1961738;-73
2020/12/14 04:44:18;;;;;;;10.12;5.55;;;;;;;3.52;73.70;99363.78;365121;109;1960680;-72
2020/12/14 04:45:25;;;;;;;9.78;5.15;;;;;;;3.52;73.62;99361.11;363160;109;1961687;-72
2020/12/14 04:46:33;;;;;;;9.40;5.27;;;;;;;3.53;73.65;99365.44;357304;109;1960718;-73
2020/12/14 04:47:40;;;;;;;11.58;6.17;;;;;;;3.52;73.44;99361.94;364544;109;1960620;-73
2020/12/14 04:48:46;;;;;;;14.36;6.95;;;;;;;3.50;73.37;99363.94;350332;109;1960632;-72
2020/12/14 04:49:53;;;;;;;11.27;7.53;;;;;;;3.51;73.41;99372.77;367203;109;1960735;-72
2020/12/14 04:50:59;;;;;;;11.63;6.46;;;;;;;3.52;73.32;99371.79;361954;110;1961641;-72
2020/12/14 04:52:05;;;;;;;14.18;6.32;;;;;;;3.51;73.54;99373.60;301561;110;2198874;-72
2020/12/14 04:53:12;;;;;;;11.27;6.91;;;;;;;3.53;73.53;99373.45;363922;110;1960674;-72
2020/12/14 04:54:20;;;;;;;9.41;5.79;;;;;;;3.54;73.18;99372.44;369258;108;1960746;-72
2020/12/14 04:55:25;;;;;;;11.11;5.56;;;;;;;3.55;73.18;99373.27;368198;107;1960689;-72
2020/12/14 04:56:41;;;;;;;13.12;6.63;;;;;;;3.55;73.46;99375.93;361332;110;1960722;-72
2020/12/14 04:57:47;;;;;;;11.54;6.34;;;;;;;3.56;73.22;99380.29;362094;110;1960645;-71
2020/12/14 04:58:55;;;;;;;11.36;5.67;;;;;;;3.56;73.16;99372.28;361818;110;1960823;-73
2020/12/14 05:00:00;;;;;;;10.64;6.31;;;;;;;3.58;73.19;99378.30;361752;110;1961582;-72
2020/12/14 05:01:05;;;;;;;13.33;7.09;;;;;;;3.58;72.89;99371.11;359627;111;1960647;-72
2020/12/14 05:02:11;;;;;;;13.36;6.33;;;;;;;3.57;72.88;99380.10;358364;110;1960736;-72
2020/12/14 05:03:17;;;;;;;13.18;6.64;;;;;;;3.56;73.01;99374.95;364820;109;1960676;-72
2020/12/14 05:04:23;;;;;;;10.88;6.00;;;;;;;3.56;73.27;99380.29;367670;108;1960751;-73
2020/12/14 05:05:30;;;;;;;11.26;6.15;;;;;;;3.55;73.14;99381.27;341240;108;2373662;-72